createdAt,value
2022-09-05T00:02:21.539Z,99.90
2022-09-05T00:05:01.199Z,99.90
2022-09-05T00:07:58.726Z,99.90
2022-09-05T00:11:05.551Z,99.90
2022-09-05T00:13:29.470Z,99.90
2022-09-05T00:16:19.843Z,99.90
2022-09-05T00:21:40.170Z,99.90
2022-09-05T00:24:22.898Z,99.90
2022-09-05T00:25:31.169Z,99.90
2022-09-05T00:27:53.192Z,99.90
2022-09-05T00:31:51.207Z,99.90
2022-09-05T00:33:26.087Z,99.90
2022-09-05T00:36:21.275Z,99.90
2022-09-05T00:38:58.222Z,99.90
2022-09-05T00:41:27.529Z,99.90
2022-09-05T00:43:56.943Z,99.90
2022-09-05T00:46:28.722Z,99.90
2022-09-05T00:49:16.434Z,99.90
2022-09-05T00:51:55.458Z,99.90
2022-09-05T00:54:42.681Z,99.90
2022-09-05T00:57:30.647Z,99.90
2022-09-05T01:00:16.412Z,99.90
2022-09-05T01:03:13.849Z,99.90
2022-09-05T01:06:14.689Z,99.90
2022-09-05T01:09:08.026Z,99.90
2022-09-05T01:11:50.904Z,99.90
2022-09-05T01:14:34.049Z,99.90
2022-09-05T01:17:21.450Z,99.90
2022-09-05T01:20:29.867Z,99.90
2022-09-05T01:23:17.977Z,99.90
2022-09-05T01:25:58.346Z,99.90
2022-09-05T01:29:18.774Z,99.90
2022-09-05T01:31:28.984Z,99.90
2022-09-05T01:34:04.458Z,99.90
2022-09-05T01:36:50.636Z,99.90
2022-09-05T01:40:11.911Z,99.90
2022-09-05T01:42:32.439Z,99.90
2022-09-05T01:45:06.197Z,99.90
2022-09-05T01:47:50.826Z,99.90
2022-09-05T01:50:37.116Z,99.90
2022-09-05T01:53:25.557Z,99.90
2022-09-05T01:56:10.558Z,99.90
2022-09-05T01:58:59.160Z,99.90
2022-09-05T02:01:36.964Z,99.90
2022-09-05T02:04:30.428Z,99.90
2022-09-05T02:07:22.542Z,99.90
2022-09-05T02:10:21.055Z,99.90
2022-09-05T02:13:02.253Z,99.90
2022-09-05T02:15:42.850Z,99.90
2022-09-05T02:18:21.574Z,99.90
2022-09-05T02:20:57.054Z,99.90
2022-09-05T02:23:42.601Z,99.90
2022-09-05T02:26:19.136Z,99.90
2022-09-05T02:28:53.965Z,99.90
2022-09-05T02:31:28.468Z,99.90
2022-09-05T02:34:03.184Z,99.90
2022-09-05T02:36:43.872Z,99.90
2022-09-05T02:45:06.403Z,99.90
2022-09-05T02:45:17.101Z,99.90
2022-09-05T02:45:26.763Z,99.90
2022-09-05T02:48:06.918Z,99.90
2022-09-05T02:57:24.441Z,99.90
2022-09-05T02:57:40.792Z,99.90
2022-09-05T02:58:04.784Z,99.90
2022-09-05T03:00:11.685Z,99.90
2022-09-05T03:03:05.163Z,99.90
2022-09-05T03:05:38.377Z,99.90
2022-09-05T03:08:21.685Z,99.90
2022-09-05T03:11:13.700Z,99.90
2022-09-05T03:14:26.340Z,99.90
2022-09-05T03:17:30.878Z,99.90
2022-09-05T03:20:27.514Z,99.90
2022-09-05T03:23:53.175Z,99.90
2022-09-05T03:26:50.950Z,99.90
2022-09-05T03:30:03.331Z,99.90
2022-09-05T03:33:10.518Z,99.90
2022-09-05T03:36:11.771Z,99.90
2022-09-05T03:39:22.259Z,99.90
2022-09-05T03:42:14.589Z,99.90
2022-09-05T03:44:59.671Z,99.90
2022-09-05T03:47:58.369Z,99.90
2022-09-05T03:57:07.182Z,99.90
2022-09-05T03:57:15.589Z,99.90
2022-09-05T03:57:42.273Z,99.90
2022-09-05T04:00:20.963Z,99.90
2022-09-05T04:08:06.828Z,99.90
2022-09-05T04:08:19.115Z,99.90
2022-09-05T04:08:52.821Z,99.90
2022-09-05T04:11:32.616Z,99.90
2022-09-05T04:14:06.771Z,99.90
2022-09-05T04:16:47.926Z,99.90
2022-09-05T04:19:23.308Z,99.90
2022-09-05T04:22:01.215Z,99.90
2022-09-05T04:24:37.848Z,99.90
2022-09-05T04:27:26.411Z,99.90
2022-09-05T04:30:38.060Z,99.90
2022-09-05T04:33:10.392Z,99.90
2022-09-05T04:35:48.536Z,99.90
2022-09-05T04:38:19.116Z,99.90
2022-09-05T04:40:52.326Z,99.90
2022-09-05T04:43:35.283Z,99.90
2022-09-05T04:46:19.011Z,99.90
2022-09-05T04:48:56.810Z,99.90
2022-09-05T04:52:00.286Z,99.90
2022-09-05T04:54:41.068Z,99.90
2022-09-05T04:57:20.180Z,99.90
2022-09-05T05:03:09.929Z,99.90
2022-09-05T05:06:11.232Z,99.90
2022-09-05T05:06:13.898Z,99.90
2022-09-05T05:08:47.650Z,99.90
2022-09-05T05:17:07.527Z,99.90
2022-09-05T05:18:07.039Z,99.90
2022-09-05T05:18:15.972Z,99.90
2022-09-05T05:20:42.607Z,99.90
2022-09-05T05:22:59.820Z,99.90
2022-09-05T05:25:48.102Z,99.90
2022-09-05T05:28:24.798Z,99.90
2022-09-05T05:31:01.697Z,99.90
2022-09-05T05:33:33.677Z,99.90
2022-09-05T05:36:08.110Z,99.90
2022-09-05T05:38:44.553Z,99.90
2022-09-05T05:41:21.079Z,99.90
2022-09-05T05:43:50.884Z,99.90
2022-09-05T05:46:29.686Z,99.90
2022-09-05T05:49:15.339Z,99.90
2022-09-05T05:52:01.825Z,99.90
2022-09-05T05:54:37.809Z,99.90
2022-09-05T05:57:35.702Z,99.90
2022-09-05T06:00:21.733Z,99.90
2022-09-05T06:03:29.813Z,99.90
2022-09-05T06:06:23.748Z,99.90
2022-09-05T06:14:48.301Z,99.90
2022-09-05T06:15:01.625Z,99.90
2022-09-05T06:16:28.795Z,99.90
2022-09-05T06:19:43.627Z,99.90
2022-09-05T06:22:56.177Z,99.90
2022-09-05T06:26:12.980Z,99.90
2022-09-05T06:28:56.627Z,99.90
2022-09-05T06:31:37.855Z,99.90
2022-09-05T06:34:33.572Z,99.90
2022-09-05T06:37:16.554Z,99.90
2022-09-05T06:40:01.335Z,99.90
2022-09-05T06:42:43.458Z,99.90
2022-09-05T06:45:36.764Z,99.90
2022-09-05T06:48:14.399Z,99.90
2022-09-05T06:51:09.530Z,99.90
2022-09-05T06:53:58.543Z,99.90
2022-09-05T06:56:59.730Z,99.90
2022-09-05T07:00:22.197Z,99.90
2022-09-05T07:03:07.643Z,99.90
2022-09-05T07:05:44.858Z,99.90
2022-09-05T07:08:35.298Z,99.90
2022-09-05T07:11:15.684Z,99.90
2022-09-05T07:13:57.620Z,99.90
2022-09-05T07:16:39.124Z,99.90
2022-09-05T07:19:27.205Z,99.90
2022-09-05T07:22:44.482Z,99.90
2022-09-05T07:25:04.349Z,99.90
2022-09-05T07:27:46.820Z,99.90
2022-09-05T07:30:26.325Z,99.90
2022-09-05T07:32:57.722Z,99.90
2022-09-05T07:35:31.140Z,99.90
2022-09-05T07:38:14.112Z,99.90
2022-09-05T07:40:50.261Z,99.90
2022-09-05T07:43:23.978Z,99.90
2022-09-05T07:46:11.419Z,99.90
2022-09-05T07:48:44.324Z,99.90
2022-09-05T07:56:19.186Z,99.90
2022-09-05T07:57:00.664Z,99.90
2022-09-05T07:59:55.961Z,99.90
2022-09-05T08:02:24.193Z,99.90
2022-09-05T08:04:53.688Z,99.90
2022-09-05T08:07:47.773Z,99.90
2022-09-05T08:10:17.165Z,99.90
2022-09-05T08:13:22.467Z,99.90
2022-09-05T08:16:00.635Z,99.90
2022-09-05T08:18:37.635Z,99.90
2022-09-05T08:21:14.098Z,99.90
2022-09-05T08:23:52.031Z,99.90
2022-09-05T08:26:36.873Z,99.90
2022-09-05T08:29:11.227Z,99.50
2022-09-05T08:31:44.304Z,99.60
2022-09-05T08:34:24.841Z,99.00
2022-09-05T08:37:12.321Z,98.80
2022-09-05T08:39:44.483Z,98.30
2022-09-05T08:42:26.759Z,97.80
2022-09-05T08:46:43.692Z,97.50
2022-09-05T08:48:11.701Z,96.70
2022-09-05T08:51:01.637Z,95.30
2022-09-05T08:53:47.307Z,95.30
2022-09-05T08:56:20.903Z,94.80
2022-09-05T08:59:31.484Z,94.10
2022-09-05T09:02:45.100Z,93.80
2022-09-05T09:05:14.120Z,93.40
2022-09-05T09:07:52.057Z,93.50
2022-09-05T09:10:44.579Z,93.00
2022-09-05T09:13:23.103Z,92.60
2022-09-05T09:16:04.676Z,92.30
2022-09-05T09:18:43.601Z,91.70
2022-09-05T09:21:25.661Z,90.60
2022-09-05T09:24:02.407Z,90.00
2022-09-05T09:26:38.268Z,87.60
2022-09-05T09:29:08.934Z,85.60
2022-09-05T09:31:44.146Z,86.00
2022-09-05T09:34:36.916Z,85.10
2022-09-05T09:37:50.041Z,80.30
2022-09-05T09:41:03.499Z,79.00
2022-09-05T09:43:54.290Z,73.40
2022-09-05T09:46:30.569Z,68.60
2022-09-05T09:49:29.352Z,66.70
2022-09-05T09:52:30.480Z,63.90
2022-09-05T09:55:41.074Z,54.70
2022-09-05T09:58:45.560Z,49.00
2022-09-05T10:01:38.451Z,43.50
2022-09-05T10:10:37.945Z,40.70
2022-09-05T10:10:53.992Z,41.60
2022-09-05T10:14:50.877Z,37.10
2022-09-05T10:17:48.212Z,39.70
2022-09-05T10:20:31.160Z,47.40
2022-09-05T10:23:16.542Z,52.20
2022-09-05T10:26:05.988Z,54.00
2022-09-05T10:28:40.084Z,52.60
2022-09-05T10:33:40.278Z,52.80
2022-09-05T10:35:14.463Z,54.00
2022-09-05T10:37:10.803Z,54.80
2022-09-05T10:39:41.313Z,56.70
2022-09-05T10:42:15.477Z,58.00
2022-09-05T10:44:49.109Z,57.70
2022-09-05T10:47:27.102Z,57.10
2022-09-05T10:50:07.890Z,58.00
2022-09-05T10:52:57.548Z,55.50
2022-09-05T10:55:31.221Z,56.70
2022-09-05T10:58:06.463Z,56.40
2022-09-05T11:02:26.498Z,56.10
2022-09-05T11:03:54.225Z,56.40
2022-09-05T11:06:48.497Z,57.70
2022-09-05T11:09:29.553Z,56.90
2022-09-05T11:12:07.633Z,56.80
2022-09-05T11:14:49.513Z,56.30
2022-09-05T11:17:30.731Z,55.30
2022-09-05T11:20:34.959Z,54.60
2022-09-05T11:23:10.976Z,55.10
2022-09-05T11:25:41.228Z,55.40
2022-09-05T11:28:16.051Z,56.10
2022-09-05T11:30:49.688Z,56.10
2022-09-05T11:39:53.632Z,55.90
2022-09-05T11:40:05.889Z,55.60
2022-09-05T11:40:28.844Z,55.30
2022-09-05T11:43:24.931Z,56.00
2022-09-05T11:46:29.804Z,55.80
2022-09-05T11:49:32.516Z,54.60
2022-09-05T11:52:29.461Z,52.90
2022-09-05T11:55:25.667Z,53.70
2022-09-05T11:58:25.196Z,55.80
2022-09-05T12:01:42.974Z,56.80
2022-09-05T12:04:16.769Z,56.30
2022-09-05T12:07:30.030Z,56.50
2022-09-05T12:10:45.743Z,56.90
2022-09-05T12:13:31.867Z,57.70
2022-09-05T12:16:08.301Z,59.50
2022-09-05T12:18:45.822Z,59.90
2022-09-05T12:21:27.065Z,60.70
2022-09-05T12:25:15.113Z,60.80
2022-09-05T12:27:42.930Z,61.00
2022-09-05T12:29:59.305Z,61.30
2022-09-05T12:34:11.991Z,62.20
2022-09-05T12:36:04.872Z,62.40
2022-09-05T12:40:59.386Z,62.00
2022-09-05T12:41:44.543Z,62.00
2022-09-05T12:44:42.787Z,62.50
2022-09-05T12:47:18.624Z,62.60
2022-09-05T12:50:03.562Z,62.00
2022-09-05T12:52:46.464Z,62.30
2022-09-05T12:55:26.674Z,61.90
2022-09-05T13:02:41.864Z,61.70
2022-09-05T13:03:05.820Z,62.00
2022-09-05T13:04:15.775Z,62.70
2022-09-05T13:06:39.445Z,62.50
2022-09-05T13:09:17.658Z,62.10
2022-09-05T13:14:50.392Z,61.70
2022-09-05T13:15:20.191Z,61.30
2022-09-05T13:17:59.603Z,61.30
2022-09-05T13:20:34.927Z,61.30
2022-09-05T13:23:11.360Z,62.20
2022-09-05T13:25:43.852Z,62.70
2022-09-05T13:28:15.309Z,62.40
2022-09-05T13:37:53.767Z,62.10
2022-09-05T13:38:07.749Z,61.70
2022-09-05T13:38:16.291Z,61.80
2022-09-05T13:39:48.431Z,60.90
2022-09-05T13:42:19.944Z,59.70
2022-09-05T13:44:51.555Z,59.90
2022-09-05T13:47:41.009Z,59.80
2022-09-05T13:50:22.407Z,59.70
2022-09-05T13:52:56.903Z,59.50
2022-09-05T13:55:38.074Z,59.30
2022-09-05T13:58:11.519Z,59.20
2022-09-05T14:01:06.679Z,59.20
2022-09-05T14:04:00.567Z,58.90
2022-09-05T14:10:52.486Z,58.20
2022-09-05T14:13:25.196Z,58.50
2022-09-05T14:15:58.999Z,58.30
2022-09-05T14:18:32.427Z,58.20
2022-09-05T14:21:16.325Z,58.60
2022-09-05T14:23:53.596Z,58.90
2022-09-05T14:26:29.119Z,58.80
2022-09-05T14:29:07.213Z,58.50
2022-09-05T14:37:34.684Z,58.60
2022-09-05T14:37:42.670Z,58.80
2022-09-05T14:38:09.207Z,58.90
2022-09-05T14:41:15.184Z,59.30
2022-09-05T14:44:05.198Z,59.60
2022-09-05T14:46:47.341Z,59.40
2022-09-05T14:49:44.812Z,59.60
2022-09-05T14:52:18.702Z,60.00
2022-09-05T15:02:50.941Z,62.00
2022-09-05T15:02:51.542Z,62.10
2022-09-05T15:06:33.111Z,62.60
2022-09-05T15:11:36.078Z,62.90
2022-09-05T15:12:21.290Z,63.30
2022-09-05T15:14:45.173Z,63.60
2022-09-05T15:17:22.036Z,63.50
2022-09-05T15:20:05.295Z,64.20
2022-09-05T15:22:36.309Z,63.20
2022-09-05T15:25:17.081Z,62.90
2022-09-05T15:27:46.634Z,62.70
2022-09-05T15:30:21.368Z,62.40
2022-09-05T15:32:51.708Z,61.80
2022-09-05T15:35:36.821Z,61.20
2022-09-05T15:38:27.388Z,61.40
2022-09-05T15:41:21.094Z,61.90
2022-09-05T15:43:58.257Z,61.20
2022-09-05T15:46:38.953Z,61.40
2022-09-05T15:49:14.255Z,62.10
2022-09-05T15:51:48.063Z,62.70
2022-09-05T15:54:33.867Z,63.40
2022-09-05T15:57:17.505Z,63.90
2022-09-05T15:59:49.134Z,63.90
2022-09-05T16:02:22.039Z,63.90
2022-09-05T16:10:35.549Z,64.50
2022-09-05T16:10:50.116Z,64.20
2022-09-05T16:11:05.151Z,64.00
2022-09-05T16:13:52.492Z,64.40
2022-09-05T16:23:14.636Z,65.80
2022-09-05T16:23:20.839Z,64.50
2022-09-05T16:23:34.524Z,65.20
2022-09-05T16:25:08.804Z,65.70
2022-09-05T16:27:52.309Z,66.10
2022-09-05T16:30:25.808Z,66.50
2022-09-05T16:33:02.974Z,66.10
2022-09-05T16:35:35.155Z,66.60
2022-09-05T16:38:22.887Z,67.00
2022-09-05T16:41:06.428Z,66.90
2022-09-05T16:43:38.168Z,67.00
2022-09-05T16:46:11.690Z,66.90
2022-09-05T16:48:45.968Z,67.50
2022-09-05T16:51:35.058Z,67.60
2022-09-05T16:54:12.213Z,68.10
2022-09-05T16:56:44.197Z,68.00
2022-09-05T16:59:15.896Z,68.20
2022-09-05T17:02:06.700Z,68.50
2022-09-05T17:05:03.323Z,69.10
2022-09-05T17:07:49.804Z,69.20
2022-09-05T17:10:21.600Z,69.50
2022-09-05T17:12:52.667Z,69.70
2022-09-05T17:15:23.582Z,70.50
2022-09-05T17:18:20.568Z,70.40
2022-09-05T17:20:50.392Z,71.00
2022-09-05T17:29:20.568Z,71.50
2022-09-05T17:29:34.132Z,72.20
2022-09-05T17:29:50.494Z,71.80
2022-09-05T17:32:04.445Z,72.60
2022-09-05T17:35:17.370Z,73.20
2022-09-05T17:38:12.460Z,73.50
2022-09-05T17:41:07.860Z,73.60
2022-09-05T17:43:39.710Z,74.00
2022-09-05T17:46:20.173Z,74.50
2022-09-05T17:49:18.024Z,74.40
2022-09-05T17:52:28.286Z,74.90
2022-09-05T17:54:57.317Z,75.50
2022-09-05T17:57:41.231Z,76.10
2022-09-05T18:00:47.370Z,76.20
2022-09-05T18:03:48.676Z,76.60
2022-09-05T18:06:35.659Z,76.80
2022-09-05T18:09:08.780Z,77.70
2022-09-05T18:11:44.677Z,77.80
2022-09-05T18:14:42.877Z,78.30
2022-09-05T18:17:59.859Z,78.60
2022-09-05T18:20:44.282Z,79.00
2022-09-05T18:23:43.858Z,79.30
2022-09-05T18:26:20.890Z,79.50
2022-09-05T18:28:56.626Z,80.00
2022-09-05T18:31:59.605Z,80.10
2022-09-05T18:34:48.036Z,80.30
2022-09-05T18:38:00.124Z,80.50
2022-09-05T18:41:02.340Z,81.10
2022-09-05T18:43:39.079Z,81.60
2022-09-05T18:46:14.820Z,81.90
2022-09-05T18:49:15.892Z,82.50
2022-09-05T18:51:43.251Z,82.70
2022-09-05T18:54:20.511Z,82.90
2022-09-05T18:57:19.955Z,82.90
2022-09-05T18:59:51.573Z,82.80
2022-09-05T19:02:26.925Z,83.30
2022-09-05T19:05:18.006Z,83.70
2022-09-05T19:07:50.241Z,84.10
2022-09-05T19:10:34.412Z,84.40
2022-09-05T19:13:13.455Z,85.00
2022-09-05T19:15:48.619Z,85.70
2022-09-05T19:18:26.546Z,86.20
2022-09-05T19:21:11.927Z,86.80
2022-09-05T19:23:44.299Z,87.50
2022-09-05T19:26:13.168Z,88.00
2022-09-05T19:35:54.431Z,88.10
2022-09-05T19:36:53.410Z,88.50
2022-09-05T19:37:15.104Z,88.50
2022-09-05T19:37:29.363Z,88.60
2022-09-05T19:47:27.753Z,88.90
2022-09-05T19:47:36.180Z,89.30
2022-09-05T19:47:37.701Z,89.20
2022-09-05T19:48:34.622Z,89.40
2022-09-05T19:51:12.358Z,89.30
2022-09-05T19:53:53.828Z,89.40
2022-09-05T19:56:34.673Z,89.30
2022-09-05T19:59:02.745Z,89.60
2022-09-05T20:01:32.478Z,90.00
2022-09-05T20:04:01.436Z,90.10
2022-09-05T20:06:31.244Z,90.00
2022-09-05T20:09:14.446Z,90.30
2022-09-05T20:11:47.071Z,90.20
2022-09-05T20:14:36.697Z,89.80
2022-09-05T20:17:22.620Z,89.80
2022-09-05T20:20:03.779Z,88.50
2022-09-05T20:22:48.999Z,87.00
2022-09-05T20:25:35.848Z,87.70
2022-09-05T20:28:10.276Z,86.70
2022-09-05T20:30:43.089Z,86.00
2022-09-05T20:33:19.624Z,85.40
2022-09-05T20:41:58.859Z,85.00
2022-09-05T20:43:22.634Z,84.30
2022-09-05T20:43:23.647Z,84.70
2022-09-05T20:44:22.748Z,84.40
2022-09-05T20:53:49.292Z,84.70
2022-09-05T20:54:10.148Z,85.00
2022-09-05T20:54:19.415Z,85.40
2022-09-05T20:55:41.350Z,85.70
2022-09-05T20:58:12.158Z,86.40
2022-09-05T21:01:20.827Z,86.70
2022-09-05T21:03:40.808Z,86.90
2022-09-05T21:06:33.534Z,87.30
2022-09-05T21:09:25.036Z,87.50
2022-09-05T21:11:54.290Z,87.60
2022-09-05T21:14:25.209Z,87.90
2022-09-05T21:16:59.484Z,88.40
2022-09-05T21:19:31.628Z,88.20
2022-09-05T21:22:06.338Z,88.50
2022-09-05T21:24:34.712Z,88.40
2022-09-05T21:27:17.636Z,88.50
2022-09-05T21:29:46.956Z,88.90
2022-09-05T21:32:38.400Z,88.80
2022-09-05T21:35:35.235Z,88.60
2022-09-05T21:38:01.556Z,88.30
2022-09-05T21:40:29.619Z,88.80
2022-09-05T21:47:35.538Z,89.20
2022-09-05T21:47:41.437Z,88.70
2022-09-05T21:48:37.859Z,88.60
2022-09-05T21:51:08.969Z,88.70
2022-09-05T21:57:08.225Z,88.70
2022-09-05T21:59:29.239Z,88.20
2022-09-05T21:59:36.824Z,88.40
2022-09-05T22:02:08.460Z,88.30
2022-09-05T22:04:41.232Z,88.30
2022-09-05T22:07:15.709Z,88.60
2022-09-05T22:09:45.291Z,88.70
2022-09-05T22:12:30.468Z,88.90
2022-09-05T22:15:08.684Z,88.30
2022-09-05T22:17:47.609Z,88.30
2022-09-05T22:20:20.289Z,88.60
2022-09-05T22:22:56.210Z,88.10
2022-09-05T22:25:30.332Z,87.90
2022-09-05T22:28:06.408Z,88.30
2022-09-05T22:30:35.416Z,88.10
2022-09-05T22:33:05.449Z,88.50
2022-09-05T22:35:33.958Z,88.00
2022-09-05T22:38:07.060Z,87.90
2022-09-05T22:40:39.510Z,88.20
2022-09-05T22:43:09.674Z,88.50
2022-09-05T22:45:39.343Z,89.50
2022-09-05T22:48:08.764Z,88.60
2022-09-05T22:50:36.850Z,88.40
2022-09-05T22:53:07.033Z,88.40
2022-09-05T22:55:35.612Z,88.80
2022-09-05T22:58:05.523Z,89.00
2022-09-05T23:00:34.629Z,88.30
2022-09-05T23:03:05.724Z,88.70
2022-09-05T23:05:34.649Z,88.30
2022-09-05T23:08:04.364Z,88.40
2022-09-05T23:10:32.747Z,87.80
2022-09-05T23:13:04.111Z,87.80
2022-09-05T23:15:33.665Z,87.80
2022-09-05T23:18:01.995Z,86.70
2022-09-05T23:20:31.399Z,87.40
2022-09-05T23:23:02.842Z,87.10
2022-09-05T23:25:30.912Z,86.90
2022-09-05T23:27:58.925Z,86.60
2022-09-05T23:30:27.072Z,86.60
2022-09-05T23:32:56.422Z,86.70
2022-09-05T23:35:24.408Z,86.40
2022-09-05T23:37:52.379Z,86.50
2022-09-05T23:40:22.004Z,86.30
2022-09-05T23:42:53.835Z,86.20
2022-09-05T23:45:21.981Z,86.00
2022-09-05T23:47:50.276Z,86.40
2022-09-05T23:50:20.845Z,85.40
2022-09-05T23:52:49.213Z,85.00
2022-09-05T23:55:19.193Z,84.80
2022-09-05T23:57:47.563Z,84.80
